Time;durP1;ratioP1;P1;durP2;ratioP2;P2;SDS_P1;SDS_P2;PMS_P1;PMS_P2;Temp;Humidity;BMP_temperature;BMP_pressure;BME280_temperature;BME280_humidity;BME280_pressure;Samples;Min_cycle;Max_cycle;Signal;HPM_P1;HPM_P2
2023/05/16 00:03:19;;;;;;;11.75;6.05;;;;;;;12.94;58.84;99771.75;10402272;28;20049;-58
2023/05/16 00:08:21;;;;;;;9.98;5.50;;;;;;;13.14;58.35;99766.84;10403481;28;20087;-58
2023/05/16 00:13:24;;;;;;;10.55;5.80;;;;;;;13.07;58.61;99769.06;10401928;28;20568;-58
2023/05/16 00:18:26;;;;;;;11.23;5.70;;;;;;;13.06;58.76;99766.56;10402223;28;20049;-57
2023/05/16 00:23:28;;;;;;;8.55;5.00;;;;;;;13.08;58.27;99775.16;10414319;28;20090;-58
2023/05/16 00:28:29;;;;;;;9.80;5.07;;;;;;;13.16;58.04;99780.72;10404726;28;20050;-58
2023/05/16 00:33:32;;;;;;;9.90;4.95;;;;;;;13.10;57.89;99778.53;10400569;28;20132;-56
2023/05/16 00:38:34;;;;;;;10.07;4.93;;;;;;;13.08;57.83;99777.78;10402293;28;20061;-56
2023/05/16 00:43:36;;;;;;;12.60;4.95;;;;;;;12.98;57.72;99774.16;10401536;28;20473;-58
2023/05/16 00:48:38;;;;;;;9.18;4.47;;;;;;;12.88;57.92;99780.06;10423178;28;20099;-57
2023/05/16 00:53:41;;;;;;;7.80;4.65;;;;;;;12.78;58.07;99771.16;10421272;28;20693;-58
2023/05/16 00:58:43;;;;;;;9.40;4.90;;;;;;;12.81;57.81;99775.38;10398887;28;20579;-57
2023/05/16 01:03:45;;;;;;;9.77;5.22;;;;;;;12.69;58.15;99766.59;10399783;28;20072;-58
2023/05/16 01:08:47;;;;;;;10.02;5.07;;;;;;;12.73;57.91;99770.66;10401581;28;20205;-58
2023/05/16 01:14:17;;;;;;;10.55;5.18;;;;;;;12.58;58.68;99770.91;10400664;28;20050;-56
2023/05/16 01:19:31;;;;;;;11.43;5.68;;;;;;;12.50;58.54;99766.19;10400181;28;20050;-58
2023/05/16 01:24:42;;;;;;;10.82;5.55;;;;;;;12.57;58.42;99775.31;10401948;28;20359;-57
2023/05/16 01:29:44;;;;;;;10.25;5.53;;;;;;;12.47;58.52;99768.22;10398748;28;20136;-58
2023/05/16 01:34:46;;;;;;;9.98;5.18;;;;;;;12.44;58.97;99777.13;10399482;28;20176;-58
2023/05/16 01:40:15;;;;;;;11.13;5.22;;;;;;;12.40;59.36;99772.19;10400982;28;20064;-58
2023/05/16 01:45:19;;;;;;;12.57;4.95;;;;;;;12.35;59.30;99774.31;10412223;28;20047;-58
2023/05/16 01:50:26;;;;;;;11.95;4.97;;;;;;;12.43;58.90;99774.59;10407446;28;20069;-57
2023/05/16 01:55:45;;;;;;;10.77;4.90;;;;;;;12.42;59.05;99778.16;10408568;28;20041;-57
2023/05/16 02:00:47;;;;;;;10.18;4.47;;;;;;;12.42;58.92;99784.25;10407294;28;20116;-59
2023/05/16 02:05:50;;;;;;;9.65;4.35;;;;;;;12.39;59.22;99781.00;10408120;28;20045;-57
2023/05/16 02:10:52;;;;;;;9.27;4.43;;;;;;;12.35;58.96;99788.25;10390571;28;20049;-58
2023/05/16 02:15:55;;;;;;;8.82;4.57;;;;;;;12.47;59.15;99782.16;10405184;28;20045;-57
2023/05/16 02:20:56;;;;;;;7.93;4.47;;;;;;;12.57;58.80;99787.59;10406324;28;20084;-58
2023/05/16 02:25:58;;;;;;;8.07;4.10;;;;;;;12.57;58.72;99787.59;10408232;28;20132;-58
2023/05/16 02:31:00;;;;;;;5.68;3.28;;;;;;;12.53;58.87;99788.75;10411301;28;20046;-58
2023/05/16 02:36:02;;;;;;;5.18;2.95;;;;;;;12.40;59.22;99791.38;10405103;28;20116;-57
2023/05/16 02:41:04;;;;;;;5.53;2.78;;;;;;;12.42;59.16;99805.25;10407028;28;20041;-58
2023/05/16 02:46:27;;;;;;;4.00;2.00;;;;;;;12.32;60.06;99803.34;10404416;28;20038;-56
2023/05/16 02:51:29;;;;;;;2.97;1.63;;;;;;;12.17;59.82;99802.59;10406611;28;20045;-58
2023/05/16 02:56:30;;;;;;;2.40;1.45;;;;;;;12.26;59.76;99804.59;10408105;28;20173;-58
2023/05/16 03:01:33;;;;;;;2.03;1.35;;;;;;;12.24;60.10;99801.22;10435844;28;20136;-58
2023/05/16 03:06:35;;;;;;;1.92;1.30;;;;;;;12.12;60.65;99802.06;10401414;28;20051;-58
2023/05/16 03:11:36;;;;;;;2.75;1.40;;;;;;;12.00;60.99;99802.91;10434130;28;20302;-58
2023/05/16 03:16:40;;;;;;;2.22;1.40;;;;;;;11.84;61.15;99803.09;10430989;28;20132;-58
2023/05/16 03:21:42;;;;;;;2.10;1.20;;;;;;;11.79;61.53;99805.19;10436024;28;20080;-57
2023/05/16 03:26:44;;;;;;;2.10;1.38;;;;;;;11.79;61.79;99807.81;10435280;28;20062;-58
2023/05/16 03:31:46;;;;;;;2.45;1.40;;;;;;;11.70;62.11;99803.16;10437241;28;20037;-58
2023/05/16 03:36:51;;;;;;;1.98;1.20;;;;;;;11.70;62.69;99799.72;10430090;28;20138;-58
2023/05/16 03:41:56;;;;;;;2.63;1.25;;;;;;;11.68;62.86;99804.22;10416911;28;20030;-57
2023/05/16 03:46:57;;;;;;;2.40;1.48;;;;;;;11.66;62.49;99806.09;10407541;28;20048;-58
2023/05/16 03:51:59;;;;;;;1.33;1.02;;;;;;;11.52;62.59;99814.03;10401117;28;20056;-58
2023/05/16 03:57:01;;;;;;;1.88;1.13;;;;;;;11.52;62.73;99814.03;10412751;28;20413;-58
2023/05/16 04:02:04;;;;;;;1.30;0.93;;;;;;;11.43;63.55;99818.09;10402886;28;20578;-58
2023/05/16 04:07:06;;;;;;;1.25;1.00;;;;;;;11.40;63.08;99828.75;10402747;28;20544;-56
2023/05/16 04:12:07;;;;;;;1.58;1.10;;;;;;;11.43;63.51;99835.56;10402339;28;20041;-58
2023/05/16 04:17:09;;;;;;;0.82;0.80;;;;;;;11.23;63.68;99842.91;10402040;28;20050;-58
2023/05/16 04:22:11;;;;;;;1.33;1.00;;;;;;;11.22;63.75;99856.94;10400737;28;20052;-57
2023/05/16 04:27:13;;;;;;;1.70;1.08;;;;;;;11.30;63.44;99852.06;10434061;28;20056;-58
2023/05/16 04:32:16;;;;;;;1.17;0.70;;;;;;;11.24;64.04;99855.06;10416498;28;20126;-58
2023/05/16 04:37:18;;;;;;;1.40;0.70;;;;;;;11.25;63.81;99864.59;10401783;28;20053;-58
2023/05/16 04:42:20;;;;;;;1.13;0.80;;;;;;;11.26;64.05;99862.81;10399806;28;20072;-58
2023/05/16 04:47:21;;;;;;;1.77;1.00;;;;;;;11.30;63.75;99875.63;10414911;28;20120;-58
2023/05/16 04:52:23;;;;;;;1.55;1.10;;;;;;;11.14;63.77;99887.16;10400477;28;21081;-57
2023/05/16 04:57:26;;;;;;;1.08;0.90;;;;;;;11.15;63.77;99889.66;10401798;28;20132;-58
2023/05/16 05:02:28;;;;;;;1.00;0.80;;;;;;;11.02;63.95;99906.22;10411727;28;20528;-58
2023/05/16 05:07:31;;;;;;;1.00;0.88;;;;;;;11.01;63.70;99915.81;10400345;28;20575;-58
2023/05/16 05:12:33;;;;;;;1.63;1.00;;;;;;;11.03;63.56;99918.38;10403905;28;20087;-58
2023/05/16 05:17:36;;;;;;;1.25;1.00;;;;;;;11.09;63.80;99926.69;10403250;28;20041;-58
2023/05/16 05:22:38;;;;;;;1.52;1.05;;;;;;;11.27;63.54;99933.41;10440612;28;20042;-59
2023/05/16 05:27:40;;;;;;;1.20;1.00;;;;;;;11.32;63.14;99940.16;10424344;28;20049;-58
2023/05/16 05:32:42;;;;;;;1.33;1.00;;;;;;;11.26;63.23;99943.97;10408798;28;20072;-57
2023/05/16 05:37:44;;;;;;;1.65;0.88;;;;;;;11.20;63.55;99953.06;10407371;28;20053;-58
2023/05/16 05:42:46;;;;;;;1.30;1.00;;;;;;;11.34;63.33;99959.22;10407998;28;20041;-58
2023/05/16 05:47:48;;;;;;;0.82;0.77;;;;;;;11.52;62.89;99961.50;10408323;28;20042;-58
2023/05/16 05:52:49;;;;;;;1.48;0.85;;;;;;;11.55;63.24;99974.44;10412844;28;20119;-58
2023/05/16 05:57:51;;;;;;;0.77;0.70;;;;;;;11.75;62.84;99967.91;10410959;28;20153;-58
2023/05/16 06:02:53;;;;;;;0.93;0.68;;;;;;;11.73;62.74;99978.50;10417931;28;20515;-56
2023/05/16 06:07:55;;;;;;;0.77;0.75;;;;;;;11.78;62.59;99988.69;10425747;28;20501;-58
2023/05/16 06:12:57;;;;;;;0.70;0.70;;;;;;;11.75;62.52;99994.13;10406509;28;20056;-57
2023/05/16 06:17:59;;;;;;;1.17;0.70;;;;;;;11.75;62.49;100008.06;10418618;28;20431;-55
2023/05/16 06:23:01;;;;;;;1.48;0.80;;;;;;;11.74;62.54;100016.03;10410256;28;20049;-59
2023/05/16 06:28:03;;;;;;;0.73;0.40;;;;;;;11.81;61.56;100026.03;10392619;28;20120;-57
2023/05/16 06:33:05;;;;;;;0.60;0.60;;;;;;;11.84;61.74;100035.47;10405246;28;20341;-58
2023/05/16 06:38:06;;;;;;;0.40;0.40;;;;;;;11.87;61.22;100033.50;10388749;28;20299;-58
2023/05/16 06:43:08;;;;;;;0.70;0.55;;;;;;;11.88;61.22;100047.44;10406423;28;20041;-59
2023/05/16 06:48:10;;;;;;;0.50;0.50;;;;;;;12.05;61.04;100042.81;10405905;28;20049;-58
2023/05/16 06:53:12;;;;;;;0.40;0.40;;;;;;;12.18;60.28;100042.84;10406133;28;20405;-58
2023/05/16 06:58:14;;;;;;;0.55;0.55;;;;;;;12.09;59.95;100054.78;10404803;28;20061;-58
2023/05/16 07:03:16;;;;;;;0.45;0.45;;;;;;;12.20;60.26;100048.00;10404106;28;20045;-59
2023/05/16 07:08:18;;;;;;;1.45;0.60;;;;;;;12.13;60.32;100064.13;10401966;28;20057;-59
2023/05/16 07:13:20;;;;;;;0.93;0.80;;;;;;;11.94;60.02;100075.88;10397784;28;20045;-59
2023/05/16 07:18:22;;;;;;;0.70;0.70;;;;;;;11.69;60.59;100081.81;10389936;28;20050;-59
2023/05/16 07:23:24;;;;;;;0.95;0.80;;;;;;;11.43;60.13;100082.56;10402099;28;20050;-59
2023/05/16 07:28:26;;;;;;;0.80;0.77;;;;;;;11.62;59.92;100085.72;10400684;28;20052;-58
2023/05/16 07:33:28;;;;;;;0.63;0.63;;;;;;;11.97;59.39;100094.03;10436515;28;20089;-58
2023/05/16 07:38:30;;;;;;;1.17;0.90;;;;;;;12.12;59.27;100100.94;10422946;28;20119;-59
2023/05/16 07:43:34;;;;;;;1.10;0.65;;;;;;;12.20;58.21;100101.28;10423498;28;20057;-59
2023/05/16 07:48:36;;;;;;;1.75;0.90;;;;;;;11.73;58.94;100112.13;10444370;28;20041;-59
2023/05/16 07:53:38;;;;;;;2.25;1.38;;;;;;;11.48;58.06;100114.53;10441778;28;20250;-59
2023/05/16 07:58:40;;;;;;;2.00;1.40;;;;;;;11.89;57.91;100119.88;10398833;28;20045;-58
2023/05/16 08:03:42;;;;;;;1.90;0.90;;;;;;;12.49;56.34;100116.03;10416134;28;20684;-59
2023/05/16 08:08:44;;;;;;;1.88;1.10;;;;;;;12.46;55.69;100116.22;10407052;28;20045;-59
2023/05/16 08:13:46;;;;;;;1.33;1.00;;;;;;;12.81;55.93;100120.03;10399203;28;20046;-58
2023/05/16 08:18:48;;;;;;;3.13;1.13;;;;;;;12.22;56.06;100135.25;10403473;28;20060;-59
2023/05/16 08:23:50;;;;;;;2.72;1.23;;;;;;;12.47;55.66;100135.44;10420442;28;20395;-59
2023/05/16 08:28:52;;;;;;;2.40;0.85;;;;;;;12.69;54.38;100133.94;10405108;28;20045;-59
2023/05/16 08:33:54;;;;;;;1.50;0.95;;;;;;;13.10;53.06;100143.50;10405300;28;20053;-58
2023/05/16 08:38:56;;;;;;;6.00;1.20;;;;;;;12.83;52.14;100143.53;10404437;28;20045;-59
2023/05/16 08:43:58;;;;;;;3.72;1.02;;;;;;;12.51;52.93;100145.63;10402540;28;20042;-59
2023/05/16 08:49:03;;;;;;;4.55;1.20;;;;;;;12.37;52.18;100148.31;10417220;28;20052;-59
2023/05/16 08:54:12;;;;;;;1.33;0.90;;;;;;;12.43;52.24;100153.16;10376024;28;20104;-59
2023/05/16 08:59:17;;;;;;;2.35;1.05;;;;;;;12.92;51.77;100167.38;10400739;28;20051;-59
2023/05/16 09:04:19;;;;;;;4.10;1.05;;;;;;;13.35;50.96;100157.50;10409564;28;20045;-59
2023/05/16 09:09:21;;;;;;;2.10;1.10;;;;;;;14.26;49.05;100164.31;10441674;28;20049;-59
2023/05/16 09:14:23;;;;;;;1.75;0.90;;;;;;;14.95;45.09;100155.75;10403719;28;20049;-58
2023/05/16 09:19:25;;;;;;;3.35;1.00;;;;;;;14.89;45.95;100148.31;10402396;28;20096;-59
2023/05/16 09:24:28;;;;;;;2.40;1.13;;;;;;;15.53;43.80;100149.59;10415815;28;20485;-60
2023/05/16 09:29:30;;;;;;;2.00;0.90;;;;;;;15.30;44.27;100148.69;10416525;28;20041;-59
2023/05/16 09:34:37;;;;;;;1.85;0.70;;;;;;;15.12;41.16;100150.06;10376010;28;20039;-59
2023/05/16 09:39:45;;;;;;;1.77;0.90;;;;;;;16.05;41.39;100141.94;10361943;28;20249;-59
2023/05/16 09:44:51;;;;;;;2.97;0.77;;;;;;;17.45;40.79;100132.97;10379171;28;20046;-59
2023/05/16 09:49:55;;;;;;;1.30;0.60;;;;;;;17.63;41.19;100133.19;10402976;28;20045;-59
2023/05/16 09:54:57;;;;;;;2.13;0.85;;;;;;;17.18;37.42;100129.97;10401298;28;20285;-59
2023/05/16 10:00:10;;;;;;;1.88;0.80;;;;;;;16.55;36.93;100117.63;10402809;28;20144;-59
2023/05/16 10:05:12;;;;;;;0.85;0.75;;;;;;;16.10;41.00;100119.50;10407578;28;20045;-59
2023/05/16 10:10:14;;;;;;;1.48;0.88;;;;;;;16.41;39.44;100124.97;10409586;28;20046;-59
2023/05/16 10:15:16;;;;;;;1.17;0.73;;;;;;;16.68;38.57;100123.59;10409380;28;20437;-59
2023/05/16 10:20:20;;;;;;;1.05;0.80;;;;;;;17.58;38.12;100116.91;10410185;28;20107;-59
2023/05/16 10:25:28;;;;;;;2.75;0.80;;;;;;;16.52;32.52;100114.41;10407371;28;20068;-59
2023/05/16 10:30:33;;;;;;;2.33;1.00;;;;;;;16.76;37.84;100122.97;10429642;28;20129;-59
2023/05/16 10:35:35;;;;;;;1.13;0.85;;;;;;;16.54;37.71;100117.78;10415451;28;20462;-59
2023/05/16 10:40:39;;;;;;;2.55;0.70;;;;;;;15.79;37.62;100117.63;10417406;28;20123;-59
2023/05/16 10:45:42;;;;;;;1.77;0.93;;;;;;;15.95;36.40;100107.56;10414627;28;20398;-59
2023/05/16 10:50:45;;;;;;;1.30;0.90;;;;;;;16.55;37.23;100093.88;10407312;28;20038;-59
2023/05/16 10:55:58;;;;;;;2.08;0.93;;;;;;;16.46;35.45;100099.94;10404707;28;20044;-59
2023/05/16 11:01:22;;;;;;;2.60;0.85;;;;;;;16.03;35.66;100096.38;10407594;28;20437;-59
2023/05/16 11:06:32;;;;;;;0.80;0.77;;;;;;;16.64;35.97;100106.34;10406830;28;20068;-59
2023/05/16 11:11:53;;;;;;;1.65;0.80;;;;;;;16.18;35.25;100098.63;10406329;28;20037;-59
2023/05/16 11:17:07;;;;;;;;;;;;;;;16.67;35.56;100102.63;10405591;28;20046;-59
2023/05/16 11:22:22;;;;;;;1.80;0.70;;;;;;;16.61;35.92;100103.13;10423700;28;19921;-59
2023/05/16 11:27:28;;;;;;;0.60;0.60;;;;;;;16.82;35.71;100111.91;10406971;28;20061;-60
2023/05/16 11:32:34;;;;;;;2.30;0.90;;;;;;;17.25;33.39;100102.06;10407714;28;20521;-59
2023/05/16 11:37:36;;;;;;;1.10;0.70;;;;;;;17.00;35.52;100091.88;10405737;28;20161;-59
2023/05/16 11:42:43;;;;;;;1.60;0.98;;;;;;;16.77;34.70;100085.06;10407186;28;20049;-59
2023/05/16 11:47:48;;;;;;;1.67;0.90;;;;;;;16.97;35.41;100097.44;10405300;28;20389;-59
2023/05/16 11:52:52;;;;;;;2.88;0.63;;;;;;;16.66;34.67;100099.13;10404448;28;20037;-59
2023/05/16 11:57:57;;;;;;;0.65;0.60;;;;;;;16.48;34.86;100092.72;10406598;28;20047;-59
2023/05/16 12:03:03;;;;;;;0.70;0.70;;;;;;;17.26;32.25;100101.09;10396917;28;20046;-59
2023/05/16 12:08:09;;;;;;;1.42;0.80;;;;;;;16.88;33.36;100096.38;10365135;28;20053;-59
2023/05/16 12:13:11;;;;;;;0.88;0.70;;;;;;;16.21;34.63;100101.03;10389309;28;20090;-59
2023/05/16 12:18:15;;;;;;;1.27;0.70;;;;;;;16.52;33.71;100102.06;10392763;28;20086;-58
2023/05/16 12:23:17;;;;;;;0.70;0.55;;;;;;;17.02;33.39;100100.50;10383072;28;20371;-59
2023/05/16 12:28:18;;;;;;;2.50;0.60;;;;;;;16.67;33.45;100107.91;10392504;28;20482;-60
2023/05/16 12:33:20;;;;;;;2.40;0.70;;;;;;;16.89;32.60;100121.00;10399158;28;20048;-59
2023/05/16 12:38:25;;;;;;;0.90;0.68;;;;;;;16.59;32.41;100115.63;10418380;28;20700;-59
2023/05/16 12:43:27;;;;;;;1.65;0.75;;;;;;;16.61;33.70;100119.78;10398079;28;20048;-60
2023/05/16 12:48:35;;;;;;;1.67;1.10;;;;;;;16.96;32.30;100124.81;10399497;28;20410;-59
2023/05/16 12:53:46;;;;;;;1.02;0.60;;;;;;;16.83;32.53;100132.09;10393194;28;20037;-59
2023/05/16 12:59:11;;;;;;;1.85;0.82;;;;;;;15.82;32.53;100137.63;10397829;28;20051;-59
2023/05/16 13:04:17;;;;;;;1.30;0.80;;;;;;;16.12;33.11;100133.41;10382378;28;20041;-59
2023/05/16 13:09:19;;;;;;;0.57;0.50;;;;;;;16.76;31.03;100133.53;10413185;28;20073;-58
2023/05/16 13:14:21;;;;;;;1.23;0.60;;;;;;;17.44;31.32;100115.44;10396466;28;20049;-59
2023/05/16 13:19:23;;;;;;;0.60;0.60;;;;;;;17.23;31.86;100129.59;10412571;28;20045;-59
2023/05/16 13:24:26;;;;;;;1.05;0.57;;;;;;;16.83;30.20;100129.44;10404120;28;20138;-59
2023/05/16 13:29:28;;;;;;;0.82;0.60;;;;;;;17.21;31.84;100135.00;10405961;28;20087;-59
2023/05/16 13:34:31;;;;;;;1.70;0.70;;;;;;;17.23;31.84;100143.66;10394438;28;20107;-59
2023/05/16 13:39:32;;;;;;;0.70;0.70;;;;;;;17.46;31.56;100149.69;10410276;28;20077;-59
2023/05/16 13:44:35;;;;;;;1.50;0.80;;;;;;;17.11;29.99;100160.53;10421285;28;20041;-59
2023/05/16 13:49:37;;;;;;;1.77;0.75;;;;;;;16.74;31.40;100167.16;10402889;28;20038;-59
2023/05/16 13:54:40;;;;;;;0.57;0.43;;;;;;;17.14;31.51;100165.56;10384054;28;20125;-59
2023/05/16 13:59:42;;;;;;;1.73;0.70;;;;;;;16.63;31.66;100162.75;10400039;28;20376;-59
2023/05/16 14:05:12;;;;;;;2.30;0.70;;;;;;;16.84;31.57;100168.94;10395894;28;20596;-59
2023/05/16 14:10:13;;;;;;;1.40;0.77;;;;;;;16.89;31.45;100168.56;10400863;28;20106;-59
2023/05/16 14:15:15;;;;;;;0.60;0.60;;;;;;;16.70;30.93;100147.25;10413199;28;20099;-59
2023/05/16 14:20:17;;;;;;;2.65;0.80;;;;;;;17.20;31.04;100159.75;10406149;28;20481;-59
2023/05/16 14:25:19;;;;;;;1.45;0.60;;;;;;;17.18;30.03;100159.03;10419958;28;20052;-59
2023/05/16 14:30:21;;;;;;;1.40;0.70;;;;;;;16.91;31.57;100151.63;10438521;28;20512;-59
2023/05/16 14:35:23;;;;;;;2.40;0.55;;;;;;;16.82;30.82;100154.16;10418097;28;20049;-59
2023/05/16 14:40:25;;;;;;;1.58;0.70;;;;;;;16.10;30.99;100155.63;10413873;28;20058;-59
2023/05/16 14:45:26;;;;;;;1.73;0.93;;;;;;;16.12;30.92;100164.25;10392707;28;20037;-59
2023/05/16 14:50:29;;;;;;;1.55;0.85;;;;;;;16.17;31.37;100155.00;10440818;28;20056;-59
2023/05/16 14:55:31;;;;;;;0.57;0.57;;;;;;;16.64;31.60;100158.31;10397108;28;20403;-59
2023/05/16 15:00:33;;;;;;;0.90;0.55;;;;;;;16.65;31.54;100152.09;10405743;28;20099;-59
2023/05/16 15:05:35;;;;;;;0.68;0.50;;;;;;;16.09;31.29;100162.69;10421303;28;20045;-59
2023/05/16 15:10:37;;;;;;;1.35;0.50;;;;;;;16.00;31.91;100178.38;10427000;28;20041;-59
2023/05/16 15:15:39;;;;;;;1.30;0.50;;;;;;;15.94;32.86;100176.22;10399631;28;20034;-58
2023/05/16 15:20:41;;;;;;;0.52;0.50;;;;;;;15.68;32.58;100175.63;10415525;28;20114;-59
2023/05/16 15:25:43;;;;;;;0.57;0.52;;;;;;;15.77;33.43;100177.56;10396963;28;20045;-59
2023/05/16 15:30:45;;;;;;;1.58;0.65;;;;;;;15.77;33.15;100180.22;10393337;28;20402;-59
2023/05/16 15:35:47;;;;;;;0.75;0.55;;;;;;;15.68;33.20;100178.25;10386509;28;20087;-59
2023/05/16 15:40:49;;;;;;;1.50;0.55;;;;;;;15.50;33.69;100184.94;10398202;28;20062;-59
2023/05/16 15:46:08;;;;;;;0.95;0.75;;;;;;;15.20;33.99;100190.72;10416535;28;20053;-59
2023/05/16 15:51:12;;;;;;;0.82;0.70;;;;;;;14.72;34.31;100193.44;10394655;28;20076;-59
2023/05/16 15:56:14;;;;;;;2.50;0.60;;;;;;;14.55;34.66;100192.88;10400838;28;20042;-59
2023/05/16 16:01:16;;;;;;;1.38;0.70;;;;;;;14.89;34.61;100201.81;10413830;28;20048;-59
2023/05/16 16:06:18;;;;;;;1.08;0.52;;;;;;;15.24;34.59;100200.06;10409584;28;20048;-59
2023/05/16 16:11:21;;;;;;;0.43;0.40;;;;;;;15.16;34.52;100193.69;10413929;28;20041;-58
2023/05/16 16:16:23;;;;;;;1.63;0.55;;;;;;;15.39;34.52;100184.88;10379941;28;20521;-59
2023/05/16 16:21:25;;;;;;;1.48;0.80;;;;;;;15.53;34.79;100189.97;10398518;28;20132;-59
2023/05/16 16:26:27;;;;;;;1.73;0.68;;;;;;;15.26;34.34;100194.66;10388527;28;20056;-59
2023/05/16 16:31:29;;;;;;;2.15;0.95;;;;;;;15.45;34.80;100210.75;10403084;28;20049;-59
2023/05/16 16:36:31;;;;;;;1.15;0.60;;;;;;;15.48;34.98;100199.16;10415595;28;20081;-59
2023/05/16 16:41:33;;;;;;;1.20;0.60;;;;;;;15.22;35.20;100201.13;10397042;28;20434;-59
2023/05/16 16:46:36;;;;;;;1.15;0.63;;;;;;;15.12;35.59;100200.94;10402715;28;20094;-59
2023/05/16 16:51:38;;;;;;;1.05;0.80;;;;;;;15.13;36.04;100194.75;10386678;28;20037;-59
2023/05/16 16:56:40;;;;;;;1.50;0.80;;;;;;;15.02;35.95;100201.75;10407750;28;20740;-59
2023/05/16 17:01:41;;;;;;;0.98;0.70;;;;;;;15.30;36.60;100204.03;10410324;28;20137;-59
2023/05/16 17:06:44;;;;;;;0.90;0.65;;;;;;;15.34;36.90;100193.16;10442095;28;20061;-59
2023/05/16 17:11:49;;;;;;;1.17;0.77;;;;;;;15.18;36.36;100202.31;10407693;28;20530;-59
2023/05/16 17:16:51;;;;;;;0.95;0.77;;;;;;;15.12;36.14;100213.31;10393350;28;20037;-60
2023/05/16 17:21:53;;;;;;;0.80;0.60;;;;;;;15.06;36.11;100209.31;10367448;28;20128;-59
2023/05/16 17:26:56;;;;;;;0.82;0.63;;;;;;;15.29;36.26;100210.22;10391253;28;20065;-59
2023/05/16 17:31:58;;;;;;;1.27;0.63;;;;;;;15.40;35.25;100215.56;10389650;28;20061;-59
2023/05/16 17:37:00;;;;;;;0.90;0.70;;;;;;;15.16;35.69;100210.31;10390663;28;20371;-59
2023/05/16 17:42:04;;;;;;;2.10;0.77;;;;;;;15.08;35.65;100215.28;10400533;28;20088;-59
2023/05/16 17:47:06;;;;;;;1.00;0.55;;;;;;;15.17;35.33;100216.41;10380173;28;20282;-60
2023/05/16 17:52:08;;;;;;;1.33;0.90;;;;;;;15.15;35.82;100215.69;10360909;28;20410;-59
2023/05/16 17:57:10;;;;;;;0.43;0.43;;;;;;;15.07;35.90;100220.69;10378888;28;20107;-59
2023/05/16 18:02:14;;;;;;;1.73;0.80;;;;;;;14.71;36.84;100231.28;10382089;28;20464;-59
2023/05/16 18:07:16;;;;;;;1.35;0.80;;;;;;;14.41;36.85;100243.00;10394148;28;20399;-59
2023/05/16 18:12:17;;;;;;;1.40;0.70;;;;;;;14.20;37.20;100243.66;10385878;28;20038;-59
2023/05/16 18:17:19;;;;;;;0.70;0.57;;;;;;;14.20;36.95;100236.63;10437712;28;20099;-60
2023/05/16 18:22:21;;;;;;;2.42;1.15;;;;;;;14.11;37.06;100253.03;10398898;28;20108;-59
2023/05/16 18:27:23;;;;;;;3.20;1.00;;;;;;;13.88;37.79;100255.56;10436774;28;20045;-59
2023/05/16 18:32:25;;;;;;;1.40;0.70;;;;;;;13.62;37.96;100255.53;10408364;28;20037;-59
2023/05/16 18:37:27;;;;;;;1.70;0.80;;;;;;;13.44;38.45;100253.28;10399599;28;20045;-59
2023/05/16 18:42:29;;;;;;;1.17;0.63;;;;;;;13.31;38.73;100276.03;10437194;28;20057;-59
2023/05/16 18:47:31;;;;;;;1.48;0.80;;;;;;;13.07;38.79;100269.75;10395733;28;20119;-59
2023/05/16 18:52:34;;;;;;;1.20;0.82;;;;;;;12.92;39.37;100279.44;10415063;28;20057;-59
2023/05/16 18:57:36;;;;;;;1.27;0.80;;;;;;;12.77;39.51;100291.75;10411880;28;20042;-59
2023/05/16 19:02:38;;;;;;;2.30;0.63;;;;;;;12.61;40.21;100293.66;10399157;28;20083;-59
2023/05/16 19:07:43;;;;;;;2.30;0.70;;;;;;;12.50;40.69;100308.34;10396664;28;22103;-59
2023/05/16 19:12:47;;;;;;;3.95;0.93;;;;;;;12.40;40.98;100318.59;10393716;28;20042;-59
2023/05/16 19:17:49;;;;;;;1.30;0.95;;;;;;;12.18;41.12;100336.53;10395741;28;20033;-59
2023/05/16 19:22:51;;;;;;;1.52;0.70;;;;;;;12.07;41.48;100336.31;10399319;28;20060;-59
2023/05/16 19:27:53;;;;;;;0.82;0.70;;;;;;;11.97;41.93;100345.66;10394617;28;20056;-59
2023/05/16 19:32:55;;;;;;;2.70;0.85;;;;;;;11.87;42.08;100368.09;10394443;28;20585;-58
2023/05/16 19:37:58;;;;;;;1.30;0.85;;;;;;;11.76;42.70;100367.88;10432561;28;20046;-58
2023/05/16 19:43:00;;;;;;;2.50;0.98;;;;;;;11.61;42.58;100374.84;10400342;28;20075;-58
2023/05/16 19:48:02;;;;;;;3.08;1.30;;;;;;;11.42;43.04;100381.22;10375441;28;20046;-58
2023/05/16 19:53:04;;;;;;;0.80;0.65;;;;;;;11.37;43.46;100385.84;10393613;28;20064;-58
2023/05/16 19:58:06;;;;;;;2.45;1.15;;;;;;;11.29;43.63;100392.34;10399029;28;20046;-58
2023/05/16 20:03:08;;;;;;;1.45;0.88;;;;;;;11.18;44.24;100399.97;10402074;28;20406;-57
2023/05/16 20:08:10;;;;;;;1.20;0.90;;;;;;;11.08;44.31;100406.63;10402996;28;20064;-58
2023/05/16 20:13:17;;;;;;;4.50;1.17;;;;;;;11.02;44.77;100414.78;10395660;28;20053;-58
2023/05/16 20:18:18;;;;;;;1.35;0.90;;;;;;;10.92;45.02;100421.44;10401743;28;20486;-58
2023/05/16 20:23:20;;;;;;;2.15;0.93;;;;;;;10.94;45.11;100427.44;10394841;28;20576;-58
2023/05/16 20:28:22;;;;;;;2.60;1.27;;;;;;;10.88;45.41;100430.38;10387603;28;20048;-58
2023/05/16 20:33:24;;;;;;;2.60;1.10;;;;;;;10.83;45.67;100428.91;10405645;28;20533;-58
2023/05/16 20:38:26;;;;;;;1.02;0.82;;;;;;;10.90;45.89;100435.53;10398023;28;20050;-58
2023/05/16 20:43:28;;;;;;;2.65;1.05;;;;;;;10.92;46.23;100437.13;10395432;28;20042;-57
2023/05/16 20:48:30;;;;;;;2.30;1.00;;;;;;;10.85;46.43;100443.59;10380832;28;20045;-58
2023/05/16 20:53:32;;;;;;;3.58;1.10;;;;;;;10.87;46.69;100444.38;10396465;28;20045;-58
2023/05/16 20:58:34;;;;;;;4.00;1.30;;;;;;;10.98;46.81;100446.44;10394427;28;20684;-57
2023/05/16 21:03:35;;;;;;;1.38;1.02;;;;;;;11.09;47.12;100447.56;10414657;28;20112;-58
2023/05/16 21:08:38;;;;;;;2.50;1.27;;;;;;;11.20;46.44;100453.09;10395731;28;20049;-58
2023/05/16 21:13:39;;;;;;;2.33;1.13;;;;;;;11.20;46.77;100454.84;10397123;28;20489;-57
2023/05/16 21:18:42;;;;;;;4.63;1.30;;;;;;;11.15;46.93;100447.25;10397767;28;20418;-57
2023/05/16 21:23:44;;;;;;;2.97;1.13;;;;;;;11.17;47.14;100460.28;10414712;28;20493;-58
2023/05/16 21:28:45;;;;;;;1.75;1.08;;;;;;;11.10;47.22;100464.13;10399487;28;20046;-58
2023/05/16 21:33:52;;;;;;;1.17;0.90;;;;;;;11.09;47.51;100458.03;10401286;28;20060;-58
2023/05/16 21:38:53;;;;;;;2.78;1.00;;;;;;;10.93;47.57;100466.78;10400192;28;20053;-58
2023/05/16 21:43:55;;;;;;;4.00;1.48;;;;;;;10.97;47.95;100465.69;10401954;28;20489;-58
2023/05/16 21:48:57;;;;;;;2.42;1.25;;;;;;;10.96;47.72;100472.69;10403985;28;20076;-58
2023/05/16 21:54:01;;;;;;;2.05;1.20;;;;;;;10.94;47.70;100479.78;10425370;28;20065;-59
2023/05/16 21:59:03;;;;;;;3.10;1.20;;;;;;;10.82;48.05;100480.41;10421591;28;20132;-58
2023/05/16 22:04:05;;;;;;;2.75;1.20;;;;;;;10.74;48.23;100477.34;10405182;28;20076;-58
2023/05/16 22:09:07;;;;;;;4.10;1.30;;;;;;;10.61;48.50;100488.50;10408055;28;20490;-58
2023/05/16 22:14:09;;;;;;;1.88;1.10;;;;;;;10.50;48.91;100496.91;10405469;28;20041;-58
2023/05/16 22:19:11;;;;;;;3.03;1.38;;;;;;;10.36;49.09;100494.97;10403455;28;20041;-59
2023/05/16 22:24:13;;;;;;;2.67;1.38;;;;;;;10.33;49.51;100489.06;10396653;28;20038;-58
2023/05/16 22:29:15;;;;;;;3.20;1.42;;;;;;;10.25;49.76;100491.22;10405394;28;20050;-58
2023/05/16 22:34:17;;;;;;;3.15;1.58;;;;;;;10.14;50.08;100501.34;10405356;28;20041;-58
2023/05/16 22:39:19;;;;;;;2.55;1.30;;;;;;;10.06;50.42;100503.47;10408621;28;20041;-58
2023/05/16 22:44:21;;;;;;;2.20;1.40;;;;;;;9.99;50.70;100513.38;10405465;28;20041;-58
2023/05/16 22:49:23;;;;;;;1.70;1.10;;;;;;;10.04;50.87;100507.94;10405630;28;20041;-58
2023/05/16 22:54:25;;;;;;;2.30;1.10;;;;;;;10.06;51.04;100513.94;10414367;28;20048;-58
2023/05/16 22:59:27;;;;;;;2.25;1.38;;;;;;;10.05;51.28;100514.88;10405946;28;20050;-58
2023/05/16 23:04:28;;;;;;;1.75;1.00;;;;;;;9.88;51.72;100526.13;10403597;28;20387;-58
2023/05/16 23:09:30;;;;;;;2.67;1.40;;;;;;;9.74;51.79;100519.84;10403484;28;20041;-58
2023/05/16 23:14:32;;;;;;;2.90;1.40;;;;;;;9.59;52.34;100521.38;10404954;28;20054;-58
2023/05/16 23:19:34;;;;;;;2.72;1.50;;;;;;;9.42;52.57;100522.13;10402170;28;20042;-58